createdAt,value
2022-08-22T00:02:47.469Z,20.18
2022-08-22T00:03:30.865Z,15.77
2022-08-22T00:08:47.608Z,15.71
2022-08-22T00:14:01.311Z,15.62
2022-08-22T00:19:21.887Z,15.64
2022-08-22T00:24:32.377Z,15.69
2022-08-22T00:29:39.319Z,15.63
2022-08-22T00:34:58.941Z,15.48
2022-08-22T00:40:04.008Z,15.29
2022-08-22T00:45:18.122Z,15.26
2022-08-22T00:50:19.525Z,15.37
2022-08-22T00:55:40.008Z,15.28
2022-08-22T01:00:49.306Z,15.31
2022-08-22T01:05:56.264Z,15.32
2022-08-22T01:11:05.276Z,15.26
2022-08-22T01:16:16.142Z,15.27
2022-08-22T01:21:44.155Z,15.30
2022-08-22T01:27:04.001Z,15.40
2022-08-22T01:32:26.399Z,15.35
2022-08-22T01:37:46.443Z,15.38
2022-08-22T01:42:47.915Z,15.28
2022-08-22T01:47:58.123Z,15.32
2022-08-22T01:53:05.601Z,15.38
2022-08-22T01:58:24.826Z,15.31
2022-08-22T02:03:31.065Z,15.35
2022-08-22T02:08:38.579Z,15.28
2022-08-22T02:13:54.256Z,15.23
2022-08-22T02:19:14.150Z,15.24
2022-08-22T02:24:19.295Z,15.21
2022-08-22T02:29:23.224Z,15.25
2022-08-22T02:34:26.626Z,15.18
2022-08-22T02:39:47.401Z,15.19
2022-08-22T02:44:48.875Z,15.24
2022-08-22T02:50:05.871Z,15.24
2022-08-22T02:55:18.495Z,15.15
2022-08-22T03:00:25.048Z,15.05
2022-08-22T03:05:37.364Z,15.08
2022-08-22T03:10:54.604Z,15.12
2022-08-22T03:16:31.602Z,15.18
2022-08-22T03:21:36.862Z,15.11
2022-08-22T03:27:05.220Z,15.14
2022-08-22T03:32:06.619Z,15.08
2022-08-22T03:37:16.878Z,15.07
2022-08-22T03:42:30.198Z,15.11
2022-08-22T03:47:43.806Z,15.02
2022-08-22T03:53:18.451Z,15.09
2022-08-22T03:58:30.127Z,15.09
2022-08-22T04:03:54.691Z,14.99
2022-08-22T04:09:02.211Z,14.94
2022-08-22T04:14:10.509Z,14.96
2022-08-22T04:19:30.552Z,14.98
2022-08-22T04:24:35.051Z,15.05
2022-08-22T04:29:42.712Z,15.07
2022-08-22T04:34:57.993Z,14.91
2022-08-22T04:40:07.055Z,14.94
2022-08-22T04:45:12.860Z,15.03
2022-08-22T04:50:14.904Z,15.04
2022-08-22T04:55:33.195Z,14.97
2022-08-22T05:00:42.759Z,14.97
2022-08-22T05:05:45.471Z,14.91
2022-08-22T05:10:49.343Z,14.92
2022-08-22T05:15:54.758Z,14.85
2022-08-22T05:20:59.211Z,14.93
2022-08-22T05:26:02.880Z,15.09
2022-08-22T05:31:13.653Z,15.21
2022-08-22T05:36:26.678Z,15.22
2022-08-22T05:41:32.293Z,15.21
2022-08-22T05:46:44.312Z,15.36
2022-08-22T05:51:50.123Z,15.40
2022-08-22T05:56:54.867Z,15.49
2022-08-22T06:02:14.750Z,15.47
2022-08-22T06:07:16.274Z,15.54
2022-08-22T06:12:22.785Z,15.67
2022-08-22T06:17:31.944Z,15.77
2022-08-22T06:22:36.331Z,15.98
2022-08-22T06:27:39.927Z,16.07
2022-08-22T06:33:00.045Z,16.22
2022-08-22T06:38:03.303Z,16.30
2022-08-22T06:43:05.183Z,16.41
2022-08-22T06:48:07.050Z,16.53
2022-08-22T06:53:15.689Z,16.77
2022-08-22T06:58:26.290Z,16.90
2022-08-22T07:03:41.234Z,16.99
2022-08-22T07:08:42.782Z,17.22
2022-08-22T07:13:47.011Z,17.40
2022-08-22T07:18:49.935Z,17.52
2022-08-22T07:23:52.166Z,17.53
2022-08-22T07:28:57.838Z,17.64
2022-08-22T07:34:06.103Z,17.83
2022-08-22T07:39:18.402Z,17.97
2022-08-22T07:44:24.114Z,18.13
2022-08-22T07:49:32.310Z,18.42
2022-08-22T07:54:40.059Z,18.51
2022-08-22T07:59:52.258Z,18.57
2022-08-22T08:04:55.138Z,18.67
2022-08-22T08:10:00.081Z,18.79
2022-08-22T08:15:04.188Z,18.82
2022-08-22T08:20:08.293Z,18.95
2022-08-22T08:25:12.489Z,19.11
2022-08-22T08:30:18.839Z,19.34
2022-08-22T08:35:23.310Z,19.48
2022-08-22T08:40:33.038Z,19.88
2022-08-22T08:45:56.398Z,19.91
2022-08-22T08:51:02.004Z,20.57
2022-08-22T08:56:10.811Z,20.99
2022-08-22T09:01:33.078Z,21.26
2022-08-22T09:06:42.314Z,21.41
2022-08-22T09:11:45.193Z,21.47
2022-08-22T09:16:51.832Z,21.89
2022-08-22T09:21:56.336Z,22.25
2022-08-22T09:27:01.198Z,22.17
2022-08-22T09:32:05.602Z,22.92
2022-08-22T09:37:33.467Z,23.06
2022-08-22T09:42:44.878Z,22.91
2022-08-22T09:48:00.291Z,23.56
2022-08-22T09:53:21.417Z,24.14
2022-08-22T09:58:41.530Z,23.81
2022-08-22T10:03:52.389Z,24.49
2022-08-22T10:09:02.500Z,24.57
2022-08-22T10:14:10.143Z,25.03
2022-08-22T10:19:30.253Z,25.10
2022-08-22T10:24:51.937Z,24.95
2022-08-22T10:30:15.615Z,25.67
2022-08-22T10:35:21.948Z,25.71
2022-08-22T10:40:38.525Z,27.26
2022-08-22T10:45:46.688Z,25.97
2022-08-22T10:50:50.478Z,26.46
2022-08-22T10:55:56.050Z,26.77
2022-08-22T11:00:59.964Z,26.51
2022-08-22T11:06:04.948Z,25.98
2022-08-22T11:11:18.776Z,25.77
2022-08-22T11:16:20.820Z,26.76
2022-08-22T11:21:25.291Z,26.11
2022-08-22T11:26:47.101Z,25.96
2022-08-22T11:32:13.747Z,25.88
2022-08-22T11:37:17.383Z,26.86
2022-08-22T11:42:29.625Z,25.85
2022-08-22T11:47:35.339Z,25.80
2022-08-22T11:52:36.881Z,26.08
2022-08-22T11:57:44.825Z,26.31
2022-08-22T12:02:55.412Z,25.62
2022-08-22T12:08:05.398Z,26.16
2022-08-22T12:13:12.130Z,26.64
2022-08-22T12:18:27.959Z,25.71
2022-08-22T12:23:43.727Z,25.98
2022-08-22T12:29:03.738Z,26.20
2022-08-22T12:34:18.242Z,25.67
2022-08-22T12:39:41.083Z,25.54
2022-08-22T12:45:00.435Z,25.88
2022-08-22T12:50:05.090Z,26.03
2022-08-22T12:55:29.965Z,26.20
2022-08-22T13:00:44.762Z,26.39
2022-08-22T13:05:56.791Z,26.14
2022-08-22T13:11:22.557Z,26.09
2022-08-22T13:16:26.225Z,25.92
2022-08-22T13:21:34.577Z,25.46
2022-08-22T13:26:45.655Z,25.97
2022-08-22T13:32:00.353Z,25.95
2022-08-22T13:37:03.850Z,26.16
2022-08-22T13:42:14.445Z,24.99
2022-08-22T13:47:23.011Z,25.41
2022-08-22T13:52:29.168Z,26.14
2022-08-22T13:57:38.013Z,25.08
2022-08-22T14:02:44.383Z,25.51
2022-08-22T14:08:02.535Z,25.64
2022-08-22T14:13:04.323Z,25.74
2022-08-22T14:18:14.383Z,25.80
2022-08-22T14:23:29.116Z,25.23
2022-08-22T14:28:33.405Z,25.53
2022-08-22T14:33:40.827Z,25.32
2022-08-22T14:39:08.954Z,24.96
2022-08-22T14:44:19.351Z,25.02
2022-08-22T14:49:31.644Z,25.70
2022-08-22T14:54:34.582Z,25.46
2022-08-22T14:59:45.557Z,25.26
2022-08-22T15:04:51.123Z,25.11
2022-08-22T15:09:56.175Z,25.51
2022-08-22T15:15:01.466Z,25.21
2022-08-22T15:20:12.062Z,25.51
2022-08-22T15:25:15.734Z,25.38
2022-08-22T15:30:30.549Z,25.57
2022-08-22T15:35:32.542Z,25.49
2022-08-22T15:40:36.756Z,25.18
2022-08-22T15:45:43.906Z,25.09
2022-08-22T15:50:57.775Z,25.36
2022-08-22T15:56:08.447Z,25.22
2022-08-22T16:01:19.692Z,25.16
2022-08-22T16:06:40.212Z,25.23
2022-08-22T16:11:53.681Z,25.29
2022-08-22T16:16:55.120Z,25.24
2022-08-22T16:21:56.510Z,25.08
2022-08-22T16:26:58.156Z,25.10
2022-08-22T16:32:03.498Z,25.01
2022-08-22T16:37:22.331Z,24.56
2022-08-22T16:42:33.516Z,24.78
2022-08-22T16:47:40.618Z,24.93
2022-08-22T16:52:52.063Z,24.88
2022-08-22T16:58:06.420Z,24.91
2022-08-22T17:03:11.484Z,24.73
2022-08-22T17:08:25.258Z,25.00
2022-08-22T17:13:26.718Z,24.73
2022-08-22T17:18:47.759Z,24.68
2022-08-22T17:24:09.694Z,24.74
2022-08-22T17:29:38.073Z,24.62
2022-08-22T17:34:50.155Z,24.73
2022-08-22T17:40:17.735Z,25.09
2022-08-22T17:45:30.253Z,24.86
2022-08-22T17:50:50.798Z,25.17
2022-08-22T17:56:03.254Z,24.80
2022-08-22T18:01:11.387Z,24.48
2022-08-22T18:06:22.061Z,24.46
2022-08-22T18:11:56.138Z,24.00
2022-08-22T18:16:59.286Z,23.70
2022-08-22T18:22:08.433Z,23.66
2022-08-22T18:27:35.419Z,23.22
2022-08-22T18:32:45.939Z,22.85
2022-08-22T18:38:19.622Z,22.48
2022-08-22T18:43:29.163Z,22.26
2022-08-22T18:48:33.874Z,22.13
2022-08-22T18:53:39.455Z,21.92
2022-08-22T18:58:46.323Z,21.60
2022-08-22T19:04:17.191Z,21.26
2022-08-22T19:09:40.341Z,20.71
2022-08-22T19:14:45.190Z,20.60
2022-08-22T19:20:18.016Z,20.58
2022-08-22T19:25:26.469Z,20.28
2022-08-22T19:30:34.192Z,20.08
2022-08-22T19:35:36.520Z,19.93
2022-08-22T19:40:47.337Z,19.72
2022-08-22T19:45:48.861Z,19.64
2022-08-22T19:51:06.673Z,19.33
2022-08-22T19:56:27.828Z,19.06
2022-08-22T20:01:43.116Z,18.79
2022-08-22T20:06:54.515Z,18.72
2022-08-22T20:12:03.798Z,18.45
2022-08-22T20:17:05.432Z,18.24
2022-08-22T20:22:08.737Z,18.17
2022-08-22T20:27:15.904Z,18.04
2022-08-22T20:32:18.923Z,18.04
2022-08-22T20:37:35.850Z,17.85
2022-08-22T20:42:44.523Z,17.86
2022-08-22T20:47:49.485Z,17.63
2022-08-22T20:53:07.602Z,17.54
2022-08-22T20:58:21.060Z,17.57
2022-08-22T21:03:32.612Z,17.42
2022-08-22T21:08:34.036Z,17.68
2022-08-22T21:13:36.915Z,17.55
2022-08-22T21:18:40.403Z,17.60
2022-08-22T21:23:43.654Z,17.49
2022-08-22T21:28:54.345Z,17.62
2022-08-22T21:33:56.777Z,17.58
2022-08-22T21:39:03.844Z,17.61
2022-08-22T21:44:24.208Z,17.66
2022-08-22T21:49:28.851Z,17.67
2022-08-22T21:54:39.841Z,17.76
2022-08-22T21:59:51.625Z,17.74
2022-08-22T22:05:01.881Z,17.59
2022-08-22T22:10:03.989Z,17.68
2022-08-22T22:15:05.780Z,17.69
2022-08-22T22:20:07.647Z,17.60
2022-08-22T22:25:40.188Z,17.66
2022-08-22T22:30:30.986Z,17.69
2022-08-22T22:35:32.612Z,17.61
2022-08-22T22:40:34.181Z,17.65
2022-08-22T22:45:35.970Z,17.54
2022-08-22T22:50:40.685Z,17.44
2022-08-22T22:55:42.242Z,17.33
2022-08-22T23:00:43.699Z,17.21
2022-08-22T23:05:45.347Z,17.07
2022-08-22T23:10:47.028Z,16.99
2022-08-22T23:15:48.628Z,16.92
2022-08-22T23:20:50.051Z,16.90
2022-08-22T23:25:51.557Z,16.74
2022-08-22T23:30:53.261Z,16.70
2022-08-22T23:35:59.402Z,16.61
2022-08-22T23:41:09.941Z,16.56
2022-08-22T23:46:12.418Z,16.40
2022-08-22T23:51:14.659Z,16.26
2022-08-22T23:56:21.320Z,16.28
